createdAt,value
2023-01-28T00:00:38.078Z,99006.38
2023-01-28T00:03:04.726Z,99005.38
2023-01-28T00:05:31.388Z,99009.72
2023-01-28T00:07:58.065Z,99005.38
2023-01-28T00:10:24.685Z,99010.25
2023-01-28T00:12:51.302Z,99005.38
2023-01-28T00:15:17.986Z,99008.66
2023-01-28T00:17:44.600Z,99008.03
2023-01-28T00:20:11.480Z,99003.63
2023-01-28T00:22:38.090Z,99008.78
2023-01-28T00:25:05.234Z,99006.38
2023-01-28T00:27:31.864Z,99013.06
2023-01-28T00:29:58.455Z,99004.47
2023-01-28T00:32:25.140Z,99003.50
2023-01-28T00:34:52.881Z,99001.81
2023-01-28T00:37:19.525Z,99002.81
2023-01-28T00:39:46.764Z,99002.72
2023-01-28T00:42:13.393Z,99007.88
2023-01-28T00:44:40.054Z,99006.22
2023-01-28T00:47:06.670Z,99001.94
2023-01-28T00:49:33.321Z,99007.06
2023-01-28T00:51:59.963Z,98996.78
2023-01-28T00:54:26.618Z,98989.78
2023-01-28T00:56:53.652Z,98988.75
2023-01-28T00:59:20.480Z,98998.94
2023-01-28T01:01:47.545Z,99001.50
2023-01-28T01:04:14.233Z,99006.63
2023-01-28T01:06:40.925Z,99010.34
2023-01-28T01:09:08.924Z,98999.38
2023-01-28T01:11:35.590Z,99000.97
2023-01-28T01:14:04.088Z,98997.69
2023-01-28T01:16:33.303Z,98998.31
2023-01-28T01:19:00.338Z,99005.78
2023-01-28T01:21:30.555Z,99010.03
2023-01-28T01:23:57.230Z,99005.66
2023-01-28T01:26:23.943Z,99012.63
2023-01-28T01:28:53.560Z,99013.84
2023-01-28T01:31:20.981Z,99005.06
2023-01-28T01:33:48.813Z,99006.16
2023-01-28T01:36:16.782Z,99006.09
2023-01-28T01:38:44.573Z,99006.09
2023-01-28T01:41:22.279Z,99002.44
2023-01-28T01:43:52.756Z,99006.09
2023-01-28T01:46:27.425Z,98999.72
2023-01-28T01:48:54.969Z,99003.94
2023-01-28T01:51:24.199Z,99005.75
2023-01-28T01:53:52.208Z,99005.81
2023-01-28T01:56:21.682Z,99015.47
2023-01-28T01:58:49.588Z,99006.94
2023-01-28T02:01:16.432Z,99017.28
2023-01-28T02:04:01.792Z,99013.09
2023-01-28T02:06:28.487Z,99013.09
2023-01-28T02:08:55.783Z,99010.72
2023-01-28T02:11:24.257Z,99020.16
2023-01-28T02:13:51.289Z,99013.47
2023-01-28T02:16:17.942Z,99015.19
2023-01-28T02:18:44.671Z,99024.41
2023-01-28T02:21:43.627Z,99022.13
2023-01-28T02:24:33.236Z,99028.31
2023-01-28T02:27:16.383Z,99026.66
2023-01-28T02:29:46.164Z,99025.06
2023-01-28T02:32:40.090Z,99019.00
2023-01-28T02:35:14.438Z,99020.44
2023-01-28T02:37:47.168Z,99027.66
2023-01-28T02:40:16.785Z,99028.31
2023-01-28T02:42:45.654Z,99021.81
2023-01-28T02:45:22.597Z,99027.16
2023-01-28T02:47:58.334Z,99023.25
2023-01-28T02:50:55.470Z,99032.03
2023-01-28T02:53:43.854Z,99036.19
2023-01-28T02:56:29.487Z,99033.78
2023-01-28T02:59:32.230Z,99040.38
2023-01-28T03:02:21.310Z,99042.88
2023-01-28T03:04:50.370Z,99037.84
2023-01-28T03:07:18.305Z,99041.25
2023-01-28T03:09:45.819Z,99042.16
2023-01-28T03:12:40.935Z,99041.34
2023-01-28T03:15:27.393Z,99051.13
2023-01-28T03:18:17.263Z,99052.19
2023-01-28T03:21:14.682Z,99054.81
2023-01-28T03:24:19.776Z,99059.69
2023-01-28T03:27:29.077Z,99061.81
2023-01-28T03:30:21.844Z,99066.28
2023-01-28T03:33:07.727Z,99073.31
2023-01-28T03:35:53.288Z,99073.94
2023-01-28T03:38:22.943Z,99091.19
2023-01-28T03:40:58.422Z,99083.34
2023-01-28T03:43:25.079Z,99082.13
2023-01-28T03:45:53.723Z,99080.16
2023-01-28T03:48:21.514Z,99075.69
2023-01-28T03:50:48.467Z,99073.47
2023-01-28T03:53:16.832Z,99080.25
2023-01-28T03:55:49.427Z,99076.97
2023-01-28T03:58:16.207Z,99080.06
2023-01-28T04:00:43.733Z,99079.50
2023-01-28T04:03:19.030Z,99083.34
2023-01-28T04:06:05.036Z,99090.94
2023-01-28T04:08:59.287Z,99095.41
2023-01-28T04:11:50.940Z,99098.38
2023-01-28T04:14:24.140Z,99088.56
2023-01-28T04:16:55.055Z,99092.34
2023-01-28T04:19:23.364Z,99094.22
2023-01-28T04:21:53.954Z,99101.31
2023-01-28T04:24:21.659Z,99103.44
2023-01-28T04:26:48.601Z,99101.63
2023-01-28T04:29:15.877Z,99112.06
2023-01-28T04:31:42.692Z,99117.47
2023-01-28T04:34:33.698Z,99125.28
2023-01-28T04:37:26.451Z,99132.16
2023-01-28T04:40:12.112Z,99143.72
2023-01-28T04:43:01.767Z,99143.00
2023-01-28T04:45:54.609Z,99146.59
2023-01-28T04:48:39.468Z,99142.38
2023-01-28T04:51:15.009Z,99152.38
2023-01-28T04:54:10.581Z,99156.31
2023-01-28T04:56:38.031Z,99157.25
2023-01-28T04:59:04.826Z,99163.41
2023-01-28T05:01:32.945Z,99169.25
2023-01-28T05:04:05.359Z,99160.88
2023-01-28T05:06:34.193Z,99162.53
2023-01-28T05:09:12.558Z,99170.31
2023-01-28T05:11:40.062Z,99181.22
2023-01-28T05:14:07.708Z,99178.44
2023-01-28T05:16:46.475Z,99184.38
2023-01-28T05:19:13.559Z,99173.53
2023-01-28T05:21:42.227Z,99182.06
2023-01-28T05:24:17.885Z,99177.03
2023-01-28T05:26:44.793Z,99184.78
2023-01-28T05:33:16.909Z,99182.69
2023-01-28T05:35:43.643Z,99186.53
2023-01-28T05:38:10.567Z,99183.19
2023-01-28T05:40:37.812Z,99189.31
2023-01-28T05:43:04.739Z,99194.56
2023-01-28T05:45:38.647Z,99188.66
2023-01-28T05:48:09.560Z,99200.72
2023-01-28T05:50:50.039Z,99202.53
2023-01-28T05:53:21.358Z,99207.88
2023-01-28T05:55:49.782Z,99209.16
2023-01-28T05:58:17.458Z,99207.53
2023-01-28T06:00:44.110Z,99208.41
2023-01-28T06:03:11.452Z,99213.56
2023-01-28T06:05:38.289Z,99210.22
2023-01-28T06:08:05.423Z,99216.09
2023-01-28T06:10:32.343Z,99207.78
2023-01-28T06:12:59.081Z,99210.47
2023-01-28T06:15:36.246Z,99211.84
2023-01-28T06:18:23.180Z,99209.44
2023-01-28T06:20:51.008Z,99219.94
2023-01-28T06:23:17.684Z,99225.25
2023-01-28T06:25:44.374Z,99225.13
2023-01-28T06:28:13.316Z,99224.16
2023-01-28T06:30:40.106Z,99222.78
2023-01-28T06:33:07.295Z,99220.91
2023-01-28T06:35:34.000Z,99225.97
2023-01-28T06:38:00.693Z,99221.09
2023-01-28T06:40:27.278Z,99222.56
2023-01-28T06:42:53.891Z,99218.88
2023-01-28T06:45:20.536Z,99217.97
2023-01-28T06:47:47.476Z,99217.81
2023-01-28T06:50:14.452Z,99215.25
2023-01-28T06:52:41.855Z,99216.56
2023-01-28T06:55:08.907Z,99204.47
2023-01-28T06:57:38.559Z,99203.66
2023-01-28T07:00:10.545Z,99206.50
2023-01-28T07:02:37.617Z,99195.28
2023-01-28T07:05:05.086Z,99193.91
2023-01-28T07:07:31.733Z,99185.47
2023-01-28T07:09:58.385Z,99182.00
2023-01-28T07:12:25.041Z,99169.41
2023-01-28T07:14:51.625Z,99170.84
2023-01-28T07:17:18.401Z,99160.03
2023-01-28T07:19:45.050Z,99155.59
2023-01-28T07:22:11.685Z,99154.06
2023-01-28T07:24:38.266Z,99147.22
2023-01-28T07:27:04.939Z,99146.75
2023-01-28T07:29:31.616Z,99129.81
2023-01-28T07:31:58.331Z,99118.13
2023-01-28T07:34:25.426Z,99117.22
2023-01-28T07:36:52.049Z,99113.63
2023-01-28T07:39:18.652Z,99104.75
2023-01-28T07:41:45.358Z,99113.09
2023-01-28T07:44:30.315Z,99087.63
2023-01-28T07:46:57.018Z,99070.66
2023-01-28T07:49:23.645Z,99057.13
2023-01-28T07:51:51.023Z,99041.69
2023-01-28T07:54:17.639Z,99036.53
2023-01-28T07:56:44.265Z,99032.00
2023-01-28T07:59:10.934Z,99025.00
2023-01-28T08:01:37.604Z,99024.06
2023-01-28T08:04:04.694Z,99028.72
2023-01-28T08:06:31.558Z,99004.66
2023-01-28T08:08:58.207Z,98998.75
2023-01-28T08:11:24.825Z,98996.47
2023-01-28T08:13:51.493Z,98986.16
2023-01-28T08:16:18.143Z,98989.22
2023-01-28T08:18:44.797Z,98990.00
2023-01-28T08:21:11.427Z,98987.84
2023-01-28T08:23:38.146Z,98991.69
2023-01-28T08:26:04.786Z,98986.28
2023-01-28T08:28:32.104Z,98982.94
2023-01-28T08:31:01.734Z,98982.63
2023-01-28T08:33:28.493Z,98981.28
2023-01-28T08:35:55.258Z,98980.69
2023-01-28T08:38:21.951Z,98978.97
2023-01-28T08:40:50.526Z,98971.31
2023-01-28T08:43:17.201Z,98972.81
2023-01-28T08:45:43.796Z,98973.91
2023-01-28T08:48:11.756Z,98974.56
2023-01-28T08:50:38.595Z,98976.56
2023-01-28T08:53:10.044Z,98962.38
2023-01-28T08:55:36.506Z,98967.00
2023-01-28T08:58:03.434Z,98963.28
2023-01-28T09:00:29.881Z,98958.78
2023-01-28T09:02:56.432Z,98960.59
2023-01-28T09:05:23.077Z,98960.22
2023-01-28T09:07:49.877Z,98971.31
2023-01-28T09:10:17.186Z,98963.06
2023-01-28T09:12:44.192Z,98967.31
2023-01-28T09:15:10.957Z,98962.38
2023-01-28T09:17:37.750Z,98959.75
2023-01-28T09:20:05.380Z,98949.88
2023-01-28T09:22:32.504Z,98939.41
2023-01-28T09:24:59.140Z,98940.09
2023-01-28T09:27:25.775Z,98933.09
2023-01-28T09:29:52.372Z,98927.22
2023-01-28T09:32:19.570Z,98921.41
2023-01-28T09:34:46.151Z,98919.44
2023-01-28T09:37:12.813Z,98914.22
2023-01-28T09:39:39.786Z,98916.91
2023-01-28T09:42:43.442Z,98913.00
2023-01-28T09:45:16.767Z,98905.41
2023-01-28T09:47:57.076Z,98905.09
2023-01-28T09:50:32.535Z,98897.97
2023-01-28T09:53:19.563Z,98896.78
2023-01-28T09:55:47.771Z,98891.84
2023-01-28T09:58:16.480Z,98890.25
2023-01-28T10:01:08.502Z,98874.78
2023-01-28T10:03:54.795Z,98872.31
2023-01-28T10:06:26.479Z,98871.81
2023-01-28T10:09:06.199Z,98875.78
2023-01-28T10:11:46.428Z,98869.97
2023-01-28T10:14:20.101Z,98869.16
2023-01-28T10:17:16.578Z,98860.91
2023-01-28T10:19:45.680Z,98859.81
2023-01-28T10:22:20.767Z,98851.75
2023-01-28T10:24:49.689Z,98853.56
2023-01-28T10:27:23.491Z,98853.16
2023-01-28T10:29:50.521Z,98851.72
2023-01-28T10:32:36.867Z,98842.28
2023-01-28T10:35:03.707Z,98839.50
2023-01-28T10:37:36.585Z,98841.06
2023-01-28T10:40:04.101Z,98826.34
2023-01-28T10:42:37.844Z,98821.56
2023-01-28T10:45:23.872Z,98816.22
2023-01-28T10:47:55.081Z,98806.31
2023-01-28T10:50:27.103Z,98809.19
2023-01-28T10:53:01.127Z,98811.91
2023-01-28T10:55:30.394Z,98807.06
2023-01-28T10:57:57.047Z,98793.53
2023-01-28T11:00:26.155Z,98789.88
2023-01-28T11:02:52.873Z,98786.69
2023-01-28T11:05:21.800Z,98780.84
2023-01-28T11:07:50.040Z,98775.03
2023-01-28T11:10:29.298Z,98760.91
2023-01-28T11:12:56.922Z,98752.69
2023-01-28T11:15:23.513Z,98735.22
2023-01-28T11:17:57.529Z,98740.19
2023-01-28T11:20:25.685Z,98712.94
2023-01-28T11:22:52.311Z,98704.41
2023-01-28T11:25:32.763Z,98691.91
2023-01-28T11:28:00.739Z,98677.31
2023-01-28T11:30:33.974Z,98677.41
2023-01-28T11:33:08.342Z,98671.44
2023-01-28T11:35:34.963Z,98660.72
2023-01-28T11:38:01.649Z,98633.41
2023-01-28T11:40:28.569Z,98631.44
2023-01-28T11:42:58.423Z,98618.34
2023-01-28T11:45:48.651Z,98605.81
2023-01-28T11:48:30.282Z,98601.31
2023-01-28T11:51:04.947Z,98585.56
2023-01-28T11:54:02.313Z,98576.31
2023-01-28T11:56:53.670Z,98554.38
2023-01-28T11:59:57.975Z,98539.94
2023-01-28T12:02:44.727Z,98539.72
2023-01-28T12:05:32.564Z,98525.66
2023-01-28T12:08:20.521Z,98507.94
2023-01-28T12:11:47.776Z,98515.59
2023-01-28T12:14:19.583Z,98502.03
2023-01-28T12:16:51.234Z,98496.06
2023-01-28T12:19:29.979Z,98482.09
2023-01-28T12:22:06.631Z,98481.41
2023-01-28T12:25:05.547Z,98471.69
2023-01-28T12:27:57.075Z,98464.88
2023-01-28T12:30:29.590Z,98452.03
2023-01-28T12:33:19.789Z,98446.72
2023-01-28T12:36:13.384Z,98444.00
2023-01-28T12:39:10.412Z,98439.63
2023-01-28T12:41:43.019Z,98444.00
2023-01-28T12:44:15.350Z,98442.03
2023-01-28T12:47:04.242Z,98435.06
2023-01-28T12:49:45.445Z,98428.25
2023-01-28T12:52:24.283Z,98425.81
2023-01-28T12:55:13.241Z,98427.94
2023-01-28T12:57:40.165Z,98414.28
2023-01-28T13:00:25.216Z,98405.94
2023-01-28T13:03:09.821Z,98411.56
2023-01-28T13:05:45.858Z,98404.75
2023-01-28T13:08:26.006Z,98404.97
2023-01-28T13:10:52.848Z,98393.22
2023-01-28T13:13:28.270Z,98399.66
2023-01-28T13:15:54.942Z,98396.50
2023-01-28T13:18:40.602Z,98398.66
2023-01-28T13:21:12.991Z,98392.22
2023-01-28T13:23:42.625Z,98393.69
2023-01-28T13:26:43.657Z,98395.63
2023-01-28T13:29:25.184Z,98398.50
2023-01-28T13:31:53.324Z,98397.97
2023-01-28T13:34:34.495Z,98401.66
2023-01-28T13:37:07.725Z,98398.59
2023-01-28T13:39:34.578Z,98387.00
2023-01-28T13:42:24.194Z,98393.69
2023-01-28T13:44:50.931Z,98393.06
2023-01-28T13:47:27.203Z,98383.03
2023-01-28T13:50:00.211Z,98393.22
2023-01-28T13:52:29.134Z,98401.25
2023-01-28T13:55:33.258Z,98403.66
2023-01-28T13:58:04.596Z,98408.81
2023-01-28T14:00:49.824Z,98409.81
2023-01-28T14:03:40.502Z,98403.34
2023-01-28T14:06:46.132Z,98410.59
2023-01-28T14:09:33.822Z,98413.44
2023-01-28T14:12:12.620Z,98424.44
2023-01-28T14:15:00.979Z,98426.09
2023-01-28T14:17:42.276Z,98425.88
2023-01-28T14:20:37.631Z,98428.59
2023-01-28T14:23:05.873Z,98420.56
2023-01-28T14:25:35.246Z,98428.53
2023-01-28T14:28:01.844Z,98435.03
2023-01-28T14:30:41.103Z,98431.25
2023-01-28T14:33:08.053Z,98429.28
2023-01-28T14:35:34.737Z,98425.13
2023-01-28T14:38:01.424Z,98434.38
2023-01-28T14:40:28.672Z,98431.53
2023-01-28T14:42:55.447Z,98438.25
2023-01-28T14:45:49.138Z,98427.09
2023-01-28T14:48:23.009Z,98428.09
2023-01-28T14:51:23.714Z,98424.13
2023-01-28T14:54:02.165Z,98424.00
2023-01-28T14:56:42.183Z,98413.97
2023-01-28T14:59:26.883Z,98421.88
2023-01-28T15:02:00.008Z,98414.28
2023-01-28T15:04:26.592Z,98424.19
2023-01-28T15:06:53.371Z,98431.06
2023-01-28T15:09:22.852Z,98418.47
2023-01-28T15:11:51.197Z,98409.53
2023-01-28T15:14:30.676Z,98409.03
2023-01-28T15:16:57.407Z,98411.75
2023-01-28T15:19:29.906Z,98415.19
2023-01-28T15:22:07.043Z,98417.16
2023-01-28T15:24:36.657Z,98421.09
2023-01-28T15:27:03.496Z,98416.09
2023-01-28T15:29:33.059Z,98420.97
2023-01-28T15:32:00.497Z,98409.84
2023-01-28T15:34:30.372Z,98404.41
2023-01-28T15:36:59.804Z,98398.50
2023-01-28T15:39:27.200Z,98393.28
2023-01-28T15:41:53.701Z,98403.47
2023-01-28T15:44:30.302Z,98411.06
2023-01-28T15:47:00.825Z,98398.19
2023-01-28T15:49:38.040Z,98388.19
2023-01-28T15:52:04.870Z,98392.16
2023-01-28T15:54:31.450Z,98382.72
2023-01-28T15:57:08.097Z,98376.47
2023-01-28T15:59:34.825Z,98372.09
2023-01-28T16:02:17.567Z,98374.06
2023-01-28T16:04:44.294Z,98383.97
2023-01-28T16:07:11.089Z,98375.97
2023-01-28T16:09:37.799Z,98379.97
2023-01-28T16:12:08.130Z,98373.38
2023-01-28T16:14:42.677Z,98363.22
2023-01-28T16:17:09.446Z,98368.28
2023-01-28T16:19:45.983Z,98354.56
2023-01-28T16:22:35.464Z,98363.34
2023-01-28T16:25:02.186Z,98367.28
2023-01-28T16:27:29.639Z,98367.88
2023-01-28T16:29:56.245Z,98374.19
2023-01-28T16:32:49.120Z,98371.13
2023-01-28T16:35:20.316Z,98380.00
2023-01-28T16:37:47.019Z,98394.16
2023-01-28T16:40:15.019Z,98391.69
2023-01-28T16:42:42.120Z,98380.31
2023-01-28T16:45:18.046Z,98393.81
2023-01-28T16:47:44.938Z,98403.25
2023-01-28T16:50:12.529Z,98400.38
2023-01-28T16:52:41.855Z,98407.91
2023-01-28T16:55:18.400Z,98400.50
2023-01-28T16:57:45.979Z,98399.19
2023-01-28T17:00:23.515Z,98396.69
2023-01-28T17:02:51.116Z,98390.72
2023-01-28T17:05:18.488Z,98386.38
2023-01-28T17:07:47.141Z,98389.41
2023-01-28T17:10:13.833Z,98398.81
2023-01-28T17:12:40.506Z,98400.03
2023-01-28T17:15:08.518Z,98397.72
2023-01-28T17:17:35.226Z,98397.59
2023-01-28T17:20:01.988Z,98398.44
2023-01-28T17:22:28.706Z,98402.31
2023-01-28T17:24:55.341Z,98403.66
2023-01-28T17:27:22.087Z,98405.72
2023-01-28T17:29:48.715Z,98414.88
2023-01-28T17:32:15.370Z,98414.81
2023-01-28T17:34:42.021Z,98410.25
2023-01-28T17:37:08.797Z,98423.97
2023-01-28T17:39:35.450Z,98430.88
2023-01-28T17:42:02.282Z,98446.56
2023-01-28T17:44:28.974Z,98444.47
2023-01-28T17:46:55.594Z,98455.38
2023-01-28T17:49:22.198Z,98464.31
2023-01-28T17:51:48.908Z,98471.41
2023-01-28T17:54:16.938Z,98472.88
2023-01-28T17:56:43.589Z,98468.19
2023-01-28T17:59:10.328Z,98462.00
2023-01-28T18:01:37.305Z,98464.41
2023-01-28T18:04:04.262Z,98468.25
2023-01-28T18:06:32.188Z,98469.28
2023-01-28T18:08:59.328Z,98469.41
2023-01-28T18:11:26.275Z,98472.53
2023-01-28T18:13:52.880Z,98468.53
2023-01-28T18:16:19.819Z,98464.72
2023-01-28T18:18:47.060Z,98463.28
2023-01-28T18:21:22.600Z,98474.41
2023-01-28T18:23:51.803Z,98459.63
2023-01-28T18:26:18.577Z,98458.50
2023-01-28T18:28:45.263Z,98458.88
2023-01-28T18:31:12.098Z,98459.75
2023-01-28T18:33:38.783Z,98463.47
2023-01-28T18:36:06.616Z,98470.16
2023-01-28T18:38:33.454Z,98468.84
2023-01-28T18:41:00.102Z,98466.81
2023-01-28T18:43:26.818Z,98464.47
2023-01-28T18:45:53.457Z,98470.53
2023-01-28T18:48:20.129Z,98467.84
2023-01-28T18:50:53.223Z,98463.59
2023-01-28T18:53:20.493Z,98464.69
2023-01-28T18:55:47.165Z,98464.03
2023-01-28T18:58:13.792Z,98468.59
2023-01-28T19:00:40.387Z,98477.81
2023-01-28T19:03:07.037Z,98480.25
2023-01-28T19:05:37.510Z,98482.88
2023-01-28T19:08:04.616Z,98489.50
2023-01-28T19:10:31.388Z,98511.78
2023-01-28T19:12:58.062Z,98519.63
2023-01-28T19:15:24.751Z,98529.34
2023-01-28T19:17:51.443Z,98539.53
2023-01-28T19:20:18.556Z,98541.63
2023-01-28T19:22:45.551Z,98536.78
2023-01-28T19:25:12.280Z,98536.22
2023-01-28T19:27:39.349Z,98538.59
2023-01-28T19:30:08.818Z,98533.31
2023-01-28T19:32:35.544Z,98525.63
2023-01-28T19:35:02.194Z,98522.13
2023-01-28T19:37:28.902Z,98530.63
2023-01-28T19:39:55.530Z,98520.38
2023-01-28T19:42:22.253Z,98514.72
2023-01-28T19:44:48.979Z,98532.59
2023-01-28T19:47:15.999Z,98527.72
2023-01-28T19:49:42.675Z,98536.56
2023-01-28T19:52:10.920Z,98528.66
2023-01-28T19:54:37.670Z,98528.91
2023-01-28T19:57:04.398Z,98528.94
2023-01-28T19:59:31.066Z,98530.91
2023-01-28T20:01:57.715Z,98530.84
2023-01-28T20:04:24.300Z,98533.75
2023-01-28T20:06:51.170Z,98508.59
2023-01-28T20:09:17.968Z,98511.59
2023-01-28T20:11:44.624Z,98502.22
2023-01-28T20:14:11.627Z,98497.22
2023-01-28T20:16:38.326Z,98499.84
2023-01-28T20:19:06.513Z,98481.03
2023-01-28T20:21:33.468Z,98476.88
2023-01-28T20:24:00.625Z,98481.25
2023-01-28T20:26:31.375Z,98482.44
2023-01-28T20:29:00.249Z,98488.09
2023-01-28T20:31:27.091Z,98497.06
2023-01-28T20:33:54.288Z,98486.25
2023-01-28T20:36:21.020Z,98487.19
2023-01-28T20:38:47.702Z,98495.94
2023-01-28T20:41:20.171Z,98488.38
2023-01-28T20:43:47.118Z,98504.81
2023-01-28T20:46:24.443Z,98498.63
2023-01-28T20:48:52.425Z,98482.66
2023-01-28T20:51:20.766Z,98477.13
2023-01-28T20:53:48.083Z,98494.63
2023-01-28T20:56:16.945Z,98490.69
2023-01-28T20:58:43.899Z,98488.34
2023-01-28T21:01:21.106Z,98486.09
2023-01-28T21:03:48.055Z,98488.28
2023-01-28T21:06:14.851Z,98478.06
2023-01-28T21:08:41.516Z,98479.22
2023-01-28T21:11:08.339Z,98483.97
2023-01-28T21:13:35.534Z,98489.94
2023-01-28T21:16:02.269Z,98493.34
2023-01-28T21:18:29.625Z,98492.00
2023-01-28T21:21:01.605Z,98499.28
2023-01-28T21:23:28.229Z,98501.16
2023-01-28T21:25:54.952Z,98509.06
2023-01-28T21:28:21.664Z,98502.53
2023-01-28T21:30:48.305Z,98506.81
2023-01-28T21:33:14.988Z,98500.38
2023-01-28T21:35:43.280Z,98486.63
2023-01-28T21:38:10.722Z,98501.63
2023-01-28T21:40:37.805Z,98505.88
2023-01-28T21:43:05.161Z,98506.00
2023-01-28T21:45:31.920Z,98513.25
2023-01-28T21:47:58.791Z,98531.41
2023-01-28T21:50:25.539Z,98525.25
2023-01-28T21:52:52.243Z,98518.34
2023-01-28T21:55:19.221Z,98509.84
2023-01-28T21:57:45.937Z,98530.63
2023-01-28T22:00:13.180Z,98530.91
2023-01-28T22:02:40.340Z,98527.81
2023-01-28T22:05:07.322Z,98533.63
2023-01-28T22:07:34.008Z,98516.66
2023-01-28T22:10:00.672Z,98521.38
2023-01-28T22:12:28.153Z,98519.38
2023-01-28T22:14:54.895Z,98512.25
2023-01-28T22:17:21.612Z,98501.63
2023-01-28T22:19:49.464Z,98501.63
2023-01-28T22:22:16.782Z,98491.13
2023-01-28T22:24:43.453Z,98494.41
2023-01-28T22:27:10.338Z,98500.09
2023-01-28T22:29:36.933Z,98492.44
2023-01-28T22:32:04.847Z,98487.09
2023-01-28T22:34:31.720Z,98492.06
2023-01-28T22:36:58.424Z,98484.16
2023-01-28T22:39:25.099Z,98476.72
2023-01-28T22:41:51.821Z,98482.06
2023-01-28T22:44:19.974Z,98492.91
2023-01-28T22:46:47.404Z,98490.94
2023-01-28T22:49:15.114Z,98505.03
2023-01-28T22:51:41.963Z,98498.72
2023-01-28T22:54:10.878Z,98486.84
2023-01-28T22:56:37.934Z,98491.84
2023-01-28T22:59:04.575Z,98498.00
2023-01-28T23:01:31.313Z,98482.38
2023-01-28T23:03:57.983Z,98483.06
2023-01-28T23:06:25.482Z,98478.78
2023-01-28T23:08:52.484Z,98480.19
2023-01-28T23:11:25.611Z,98472.63
2023-01-28T23:14:15.622Z,98474.31
2023-01-28T23:17:00.610Z,98484.50
2023-01-28T23:19:45.797Z,98489.59
2023-01-28T23:22:36.559Z,98494.19
2023-01-28T23:25:03.248Z,98507.09
2023-01-28T23:27:29.862Z,98506.47
2023-01-28T23:29:56.445Z,98504.00
2023-01-28T23:32:23.460Z,98502.56
2023-01-28T23:34:50.108Z,98490.69
2023-01-28T23:37:16.841Z,98495.63
2023-01-28T23:39:43.488Z,98493.84
2023-01-28T23:42:13.590Z,98490.69
2023-01-28T23:44:40.264Z,98500.19
2023-01-28T23:47:07.058Z,98486.63
2023-01-28T23:49:33.866Z,98488.00
2023-01-28T23:52:00.867Z,98496.03
2023-01-28T23:54:27.512Z,98485.47
2023-01-28T23:56:54.260Z,98477.00
2023-01-28T23:59:20.913Z,98481.00
